Time;durP1;ratioP1;P1;durP2;ratioP2;P2;SDS_P1;SDS_P2;PMS_P1;PMS_P2;Temp;Humidity;BMP_temperature;BMP_pressure;BME280_temperature;BME280_humidity;BME280_pressure;Samples;Min_cycle;Max_cycle;Signal;HPM_P1;HPM_P2
2023/11/12 00:00:46;;;;;;;3.20;2.50;;;22.70;57.10;;;;;;10410151;28;20223;-47
2023/11/12 00:05:51;;;;;;;3.90;2.53;;;22.70;57.80;;;;;;10411068;28;20247;-51
2023/11/12 00:10:55;;;;;;;5.90;2.72;;;22.70;57.10;;;;;;10411081;28;20204;-48
2023/11/12 00:16:00;;;;;;;4.28;2.65;;;22.80;57.20;;;;;;10408003;28;20228;-46
2023/11/12 00:21:04;;;;;;;4.72;2.83;;;22.70;57.10;;;;;;10407988;28;20685;-47
2023/11/12 00:26:07;;;;;;;4.03;2.22;;;22.70;57.10;;;;;;10411426;28;20267;-47
2023/11/12 00:31:13;;;;;;;3.60;2.05;;;22.80;57.20;;;;;;10407329;28;20201;-45
2023/11/12 00:36:16;;;;;;;5.55;2.45;;;22.70;57.10;;;;;;10411145;28;20224;-44
2023/11/12 00:41:20;;;;;;;3.20;2.38;;;22.70;57.10;;;;;;10405567;28;20197;-48
2023/11/12 00:46:26;;;;;;;4.57;2.40;;;22.70;57.10;;;;;;10409508;28;20227;-50
2023/11/12 00:51:29;;;;;;;3.97;2.15;;;22.80;57.20;;;;;;10406357;28;20196;-48
2023/11/12 00:56:33;;;;;;;4.65;2.33;;;22.70;57.10;;;;;;10410925;28;20602;-43
2023/11/12 01:01:38;;;;;;;3.20;1.85;;;22.70;57.10;;;;;;10409878;28;20251;-43
2023/11/12 01:06:41;;;;;;;4.15;2.28;;;22.70;57.10;;;;;;10410653;28;20791;-46
2023/11/12 01:11:45;;;;;;;3.17;2.30;;;22.70;57.10;;;;;;10408732;28;20660;-44
2023/11/12 01:16:50;;;;;;;5.07;2.25;;;22.70;57.10;;;;;;10390048;28;20252;-46
2023/11/12 01:21:54;;;;;;;6.72;2.00;;;22.70;57.10;;;;;;10407908;28;20204;-46
2023/11/12 01:26:57;;;;;;;4.28;2.13;;;22.70;57.10;;;;;;10402091;28;20224;-43
2023/11/12 01:32:03;;;;;;;4.95;2.25;;;22.80;57.20;;;;;;10402357;28;20223;-46
2023/11/12 01:37:07;;;;;;;5.50;2.45;;;22.80;57.20;;;;;;10408595;28;20228;-47
2023/11/12 01:42:11;;;;;;;3.38;2.20;;;22.70;57.10;;;;;;10407944;28;20250;-51
2023/11/12 01:47:18;;;;;;;3.20;2.30;;;22.70;57.10;;;;;;10409083;28;20920;-48
2023/11/12 01:52:23;;;;;;;3.30;2.13;;;22.70;57.10;;;;;;10408431;28;20200;-45
2023/11/12 01:57:27;;;;;;;6.38;2.10;;;22.70;57.10;;;;;;10404185;28;20801;-49
2023/11/12 02:02:37;;;;;;;4.00;1.98;;;22.70;57.10;;;;;;10378294;28;20198;-49
2023/11/12 02:07:42;;;;;;;2.65;1.98;;;22.70;57.10;;;;;;10408295;28;20259;-48
2023/11/12 02:12:47;;;;;;;3.50;2.00;;;22.70;57.10;;;;;;10403617;28;20212;-48
2023/11/12 02:17:53;;;;;;;2.13;1.92;;;22.70;57.10;;;;;;10408457;28;20232;-47
2023/11/12 02:22:56;;;;;;;2.55;1.83;;;22.70;57.10;;;;;;10406279;28;20266;-44
2023/11/12 02:28:01;;;;;;;4.38;1.80;;;22.70;57.10;;;;;;10408975;28;20258;-48
2023/11/12 02:33:06;;;;;;;2.10;1.90;;;22.70;57.10;;;;;;10406200;28;20204;-50
2023/11/12 02:38:11;;;;;;;2.95;1.67;;;22.70;57.10;;;;;;10408605;28;20247;-44
2023/11/12 02:43:17;;;;;;;2.90;1.83;;;22.70;57.10;;;;;;10407396;28;20307;-48
2023/11/12 02:48:21;;;;;;;4.53;2.05;;;22.70;57.10;;;;;;10407589;28;20605;-48
2023/11/12 02:53:24;;;;;;;2.42;1.90;;;22.70;57.00;;;;;;10402680;28;20204;-50
2023/11/12 02:58:29;;;;;;;2.40;2.20;;;22.70;57.00;;;;;;10402967;28;20256;-44
2023/11/12 03:03:33;;;;;;;2.35;2.08;;;22.70;57.00;;;;;;10407557;28;20259;-47
2023/11/12 03:08:37;;;;;;;4.57;2.00;;;22.70;57.70;;;;;;10407656;28;20226;-44
2023/11/12 03:13:42;;;;;;;2.10;1.65;;;22.70;57.00;;;;;;10414498;28;20197;-44
2023/11/12 03:18:48;;;;;;;2.35;1.60;;;22.70;57.00;;;;;;10411445;28;20798;-45
2023/11/12 03:23:52;;;;;;;1.83;1.73;;;22.70;57.10;;;;;;10415744;28;20737;-45
2023/11/12 03:28:57;;;;;;;1.65;1.50;;;22.70;57.00;;;;;;10413231;28;20605;-65
2023/11/12 03:34:02;;;;;;;2.38;1.65;;;22.70;57.00;;;;;;10407561;28;20258;-47
2023/11/12 03:39:08;;;;;;;2.88;1.67;;;22.70;57.00;;;;;;10412913;28;20248;-50
2023/11/12 03:44:14;;;;;;;3.15;1.90;;;22.70;57.00;;;;;;10413758;28;20193;-44
2023/11/12 03:49:17;;;;;;;1.60;1.50;;;22.70;57.00;;;;;;10413084;28;20287;-47
2023/11/12 03:54:21;;;;;;;2.13;1.65;;;22.70;57.00;;;;;;10411503;28;20200;-44
2023/11/12 03:59:26;;;;;;;1.65;1.55;;;22.70;57.00;;;;;;10411918;28;20683;-46
2023/11/12 04:04:30;;;;;;;3.80;1.80;;;22.70;57.70;;;;;;10408016;28;20196;-47
2023/11/12 04:09:34;;;;;;;2.70;1.50;;;22.70;57.00;;;;;;10408204;28;20239;-45
2023/11/12 04:14:38;;;;;;;3.67;1.92;;;22.70;57.00;;;;;;10411439;28;20196;-51
2023/11/12 04:19:42;;;;;;;2.25;1.60;;;22.70;57.00;;;;;;10411144;28;20711;-44
2023/11/12 04:24:46;;;;;;;2.15;1.83;;;22.70;57.00;;;;;;10410491;28;20247;-45
2023/11/12 04:29:52;;;;;;;1.75;1.60;;;22.70;57.00;;;;;;10411291;28;20286;-50
2023/11/12 04:34:56;;;;;;;2.00;1.55;;;22.70;57.00;;;;;;10411187;28;20262;-64
2023/11/12 04:39:59;;;;;;;1.98;1.73;;;22.70;57.00;;;;;;10404902;28;20220;-46
2023/11/12 04:45:05;;;;;;;2.08;1.55;;;22.70;57.00;;;;;;10403400;28;20197;-46
2023/11/12 04:50:10;;;;;;;3.47;1.80;;;22.70;57.00;;;;;;10396723;28;20236;-46
2023/11/12 04:55:13;;;;;;;2.03;1.40;;;22.70;57.00;;;;;;10393578;28;20247;-47
2023/11/12 05:00:19;;;;;;;2.88;1.73;;;22.80;57.00;;;;;;10398367;28;20259;-51
2023/11/12 05:05:22;;;;;;;2.45;1.58;;;22.80;57.00;;;;;;10401204;28;20266;-43
2023/11/12 05:10:26;;;;;;;2.72;1.70;;;22.70;57.00;;;;;;10401501;28;20201;-43
2023/11/12 05:15:49;;;;;;;1.83;1.67;;;22.70;56.90;;;;;;10405245;28;20239;-50
2023/11/12 05:20:53;;;;;;;2.28;1.67;;;22.80;57.00;;;;;;10402411;28;20326;-43
2023/11/12 05:25:58;;;;;;;2.17;1.50;;;22.80;57.00;;;;;;10400114;28;20704;-50
2023/11/12 05:31:03;;;;;;;3.63;1.60;;;22.70;57.60;;;;;;10394851;28;20556;-51
2023/11/12 05:36:07;;;;;;;1.90;1.60;;;22.80;57.00;;;;;;10393091;28;20216;-47
2023/11/12 05:41:11;;;;;;;2.97;1.52;;;22.70;57.00;;;;;;10396810;28;20293;-45
2023/11/12 05:46:16;;;;;;;2.30;1.58;;;22.70;57.00;;;;;;10402624;28;20236;-43
2023/11/12 05:51:20;;;;;;;2.45;1.55;;;22.80;57.00;;;;;;10397840;28;20196;-47
2023/11/12 05:56:24;;;;;;;3.08;1.83;;;22.70;57.00;;;;;;10404234;28;20247;-48
2023/11/12 06:01:29;;;;;;;4.03;1.80;;;22.80;57.00;;;;;;10395996;28;20314;-49
2023/11/12 06:06:32;;;;;;;3.30;1.85;;;22.70;57.00;;;;;;10396371;28;20712;-49
2023/11/12 06:11:38;;;;;;;4.22;1.65;;;22.70;57.00;;;;;;10396263;28;20228;-46
2023/11/12 06:16:42;;;;;;;3.22;1.75;;;22.70;57.00;;;;;;10395145;28;20259;-44
2023/11/12 06:21:46;;;;;;;3.35;1.77;;;22.70;57.00;;;;;;10397385;28;20766;-48
2023/11/12 06:26:50;;;;;;;2.72;1.65;;;22.80;57.00;;;;;;10398574;28;20285;-45
2023/11/12 06:31:54;;;;;;;2.25;1.35;;;22.80;57.00;;;;;;10403453;28;20239;-47
2023/11/12 06:36:58;;;;;;;2.60;1.30;;;22.70;57.00;;;;;;10399560;28;20263;-47
2023/11/12 06:42:02;;;;;;;3.35;1.83;;;22.70;57.00;;;;;;10400359;28;20447;-47
2023/11/12 06:47:07;;;;;;;2.72;1.50;;;22.80;57.00;;;;;;10405422;28;20283;-42
2023/11/12 06:52:10;;;;;;;4.75;1.80;;;22.70;57.00;;;;;;10409918;28;20223;-49
2023/11/12 06:57:14;;;;;;;2.20;1.42;;;22.70;57.00;;;;;;10409461;28;20224;-43
2023/11/12 07:02:18;;;;;;;3.08;1.52;;;22.70;57.00;;;;;;10399867;28;20318;-43
2023/11/12 07:07:22;;;;;;;3.95;1.70;;;22.70;57.00;;;;;;10406412;28;20221;-43
2023/11/12 07:12:28;;;;;;;3.50;1.63;;;22.70;57.00;;;;;;10404807;28;20196;-45
2023/11/12 07:17:33;;;;;;;3.20;1.67;;;22.70;57.00;;;;;;10402076;28;20216;-43
2023/11/12 07:22:39;;;;;;;2.67;1.73;;;22.70;57.00;;;;;;10407851;28;20209;-49
2023/11/12 07:27:43;;;;;;;2.97;1.80;;;22.70;57.00;;;;;;10408419;28;20220;-46
2023/11/12 07:32:49;;;;;;;4.50;1.77;;;22.70;57.00;;;;;;10409196;28;20664;-48
2023/11/12 07:37:52;;;;;;;5.65;1.55;;;22.80;57.10;;;;;;10407392;28;20270;-45
2023/11/12 07:42:56;;;;;;;3.38;1.58;;;22.80;57.00;;;;;;10412246;28;20231;-45
2023/11/12 07:48:01;;;;;;;3.35;1.60;;;22.90;57.00;;;;;;10404508;28;20724;-45
2023/11/12 07:53:05;;;;;;;19.15;2.83;;;23.00;57.10;;;;;;10410459;28;20250;-41
2023/11/12 07:58:08;;;;;;;25.83;2.80;;;23.00;57.10;;;;;;10413119;28;20303;-44
2023/11/12 08:03:13;;;;;;;11.93;2.55;;;23.00;57.20;;;;;;10400489;28;20618;-50
2023/11/12 08:08:17;;;;;;;16.30;2.50;;;22.90;57.10;;;;;;10406849;28;20800;-44
2023/11/12 08:13:20;;;;;;;5.80;2.17;;;22.90;57.10;;;;;;10403707;28;20240;-46
2023/11/12 08:18:25;;;;;;;5.20;2.15;;;23.00;57.20;;;;;;10409376;28;20224;-44
2023/11/12 08:23:29;;;;;;;8.73;2.30;;;23.00;57.40;;;;;;10395304;28;20607;-48
2023/11/12 08:28:33;;;;;;;11.70;2.10;;;23.10;57.20;;;;;;10398786;28;20263;-50
2023/11/12 08:33:38;;;;;;;5.95;1.65;;;23.20;57.20;;;;;;10398963;28;20753;-47
2023/11/12 08:38:42;;;;;;;4.63;1.80;;;23.20;57.10;;;;;;10395853;28;20680;-53
2023/11/12 08:43:46;;;;;;;3.40;1.70;;;23.20;57.10;;;;;;10403091;28;20235;-49
2023/11/12 08:48:51;;;;;;;3.47;1.67;;;23.30;57.10;;;;;;10407769;28;20224;-48
2023/11/12 08:53:55;;;;;;;3.33;1.73;;;23.30;57.10;;;;;;10408397;28;20205;-48
2023/11/12 08:58:59;;;;;;;4.30;1.50;;;23.30;57.10;;;;;;10395147;28;20920;-47
2023/11/12 09:04:04;;;;;;;3.90;1.65;;;23.30;57.00;;;;;;10394821;28;20644;-47
2023/11/12 09:09:09;;;;;;;2.90;1.70;;;23.40;57.10;;;;;;10395455;28;20213;-48
2023/11/12 09:14:15;;;;;;;3.83;1.60;;;23.30;57.10;;;;;;10386370;28;20205;-47
2023/11/12 09:19:20;;;;;;;2.80;1.60;;;23.20;57.00;;;;;;10392848;28;20248;-44
2023/11/12 09:24:24;;;;;;;3.45;1.90;;;23.20;57.10;;;;;;10393951;28;20273;-47
2023/11/12 09:29:28;;;;;;;4.60;1.60;;;23.20;57.80;;;;;;10396993;28;20248;-46
2023/11/12 09:34:33;;;;;;;3.10;1.48;;;23.10;57.00;;;;;;10387483;28;20224;-47
2023/11/12 09:39:37;;;;;;;3.72;1.50;;;23.10;57.00;;;;;;10385829;28;20306;-46
2023/11/12 09:44:43;;;;;;;5.10;1.67;;;23.10;57.00;;;;;;10390163;28;20274;-44
2023/11/12 09:49:48;;;;;;;4.00;1.80;;;23.10;57.10;;;;;;10402994;28;20876;-44
2023/11/12 09:54:53;;;;;;;6.68;1.73;;;23.10;57.10;;;;;;10403531;28;20208;-47
2023/11/12 09:59:58;;;;;;;4.55;1.73;;;23.00;57.00;;;;;;10396050;28;20294;-51
2023/11/12 10:05:04;;;;;;;5.13;1.92;;;23.00;57.10;;;;;;10395603;28;20231;-48
2023/11/12 10:10:24;;;;;;;4.85;1.90;;;23.10;57.40;;;;;;10400898;28;20208;-48
2023/11/12 10:15:29;;;;;;;4.78;1.60;;;23.20;57.50;;;;;;10394165;28;20353;-47
2023/11/12 10:20:38;;;;;;;2.80;1.60;;;23.30;57.60;;;;;;10407403;28;20711;-46
2023/11/12 10:25:43;;;;;;;4.00;1.83;;;23.30;57.70;;;;;;10406076;28;20255;-45
2023/11/12 10:30:54;;;;;;;4.45;1.80;;;23.30;57.60;;;;;;10409721;28;20656;-44
2023/11/12 10:36:08;;;;;;;3.08;1.70;;;23.30;57.80;;;;;;10406769;28;20703;-46
2023/11/12 10:41:12;;;;;;;3.70;1.83;;;23.40;57.90;;;;;;10410000;28;20296;-52
2023/11/12 10:46:16;;;;;;;3.15;1.92;;;23.40;57.80;;;;;;10415737;28;20742;-45
2023/11/12 10:51:21;;;;;;;3.45;2.13;;;23.40;58.00;;;;;;10404261;28;20683;-50
2023/11/12 10:56:25;;;;;;;4.15;2.22;;;23.40;58.10;;;;;;10403582;28;20220;-50
2023/11/12 11:01:29;;;;;;;4.07;1.90;;;23.40;58.10;;;;;;10399527;28;20270;-49
2023/11/12 11:06:35;;;;;;;3.35;1.75;;;23.40;58.10;;;;;;10412294;28;20637;-47
2023/11/12 11:11:39;;;;;;;3.60;1.85;;;23.40;58.20;;;;;;10404865;28;20204;-49
2023/11/12 11:16:46;;;;;;;21.23;2.83;;;23.40;58.10;;;;;;10397628;28;20228;-47
2023/11/12 11:22:26;;;;;;;8.57;2.88;;;23.30;58.30;;;;;;10407629;28;20278;-46
2023/11/12 11:27:31;;;;;;;6.95;2.05;;;23.30;58.30;;;;;;10408156;28;20306;-53
2023/11/12 11:32:35;;;;;;;3.67;2.00;;;23.20;58.20;;;;;;10400281;28;20272;-48
2023/11/12 11:38:11;;;;;;;6.47;2.10;;;23.20;58.20;;;;;;10399264;28;20224;-47
2023/11/12 11:43:32;;;;;;;4.07;1.98;;;23.20;58.30;;;;;;10406850;28;20274;-47
2023/11/12 11:48:37;;;;;;;5.47;1.90;;;23.10;58.30;;;;;;10403319;28;20232;-49
2023/11/12 11:53:42;;;;;;;3.05;1.77;;;23.10;58.20;;;;;;10407148;28;20281;-49
2023/11/12 11:58:48;;;;;;;4.72;2.00;;;23.00;58.10;;;;;;10405000;28;20217;-49
2023/11/12 12:04:03;;;;;;;3.22;1.70;;;23.00;58.20;;;;;;10398209;28;20248;-49
2023/11/12 12:09:13;;;;;;;2.20;1.60;;;23.00;58.20;;;;;;10393120;28;20263;-50
2023/11/12 12:14:16;;;;;;;6.70;1.73;;;23.00;58.20;;;;;;10400415;28;20232;-48
2023/11/12 12:19:22;;;;;;;11.63;2.28;;;23.00;58.20;;;;;;10405313;28;20339;-50
2023/11/12 12:24:27;;;;;;;7.72;1.80;;;23.00;58.20;;;;;;10403228;28;20215;-47
2023/11/12 12:29:31;;;;;;;8.57;2.00;;;22.90;58.10;;;;;;10407789;28;20220;-51
2023/11/12 12:34:41;;;;;;;8.90;2.00;;;22.90;58.10;;;;;;10409980;28;20603;-51
2023/11/12 12:39:57;;;;;;;2.22;1.52;;;23.00;58.20;;;;;;10409236;28;20243;-46
2023/11/12 12:45:12;;;;;;;9.00;1.80;;;22.90;58.20;;;;;;10406408;28;20608;-51
2023/11/12 12:50:21;;;;;;;3.38;1.77;;;22.90;58.10;;;;;;10404581;28;20192;-46
2023/11/12 12:55:26;;;;;;;3.55;1.63;;;22.90;58.10;;;;;;10406327;28;20220;-52
2023/11/12 13:00:31;;;;;;;4.28;1.80;;;22.90;58.10;;;;;;10408568;28;20270;-46
2023/11/12 13:05:34;;;;;;;2.55;1.30;;;22.90;58.10;;;;;;10402837;28;20221;-47
2023/11/12 13:10:40;;;;;;;4.50;1.83;;;22.90;58.10;;;;;;10400302;28;20721;-49
2023/11/12 13:15:44;;;;;;;8.25;2.17;;;23.00;58.30;;;;;;10409534;28;20224;-51
2023/11/12 13:20:51;;;;;;;7.13;2.00;;;23.10;58.30;;;;;;10400640;28;20228;-52
2023/11/12 13:25:59;;;;;;;6.97;2.08;;;23.20;58.30;;;;;;10395553;28;20313;-49
2023/11/12 13:31:02;;;;;;;6.32;2.00;;;23.10;58.30;;;;;;10401548;28;20196;-52
2023/11/12 13:36:07;;;;;;;8.35;2.85;;;23.10;58.90;;;;;;10402051;28;20216;-49
2023/11/12 13:41:11;;;;;;;9.60;3.60;;;23.10;58.40;;;;;;10400563;28;20695;-52
2023/11/12 13:46:19;;;;;;;12.40;3.35;;;23.10;58.50;;;;;;10401208;28;20278;-49
2023/11/12 13:51:24;;;;;;;16.02;3.15;;;23.20;58.60;;;;;;10404055;28;20196;-48
2023/11/12 13:56:29;;;;;;;7.50;3.00;;;23.30;58.70;;;;;;10405574;28;20216;-47
2023/11/12 14:01:32;;;;;;;9.52;3.42;;;23.30;58.80;;;;;;10391462;28;20248;-55
2023/11/12 14:06:38;;;;;;;7.88;2.83;;;23.30;58.80;;;;;;10394559;28;20699;-56
2023/11/12 14:11:43;;;;;;;12.55;3.60;;;23.40;58.80;;;;;;10392673;28;20297;-46
2023/11/12 14:16:46;;;;;;;8.85;3.60;;;23.40;58.90;;;;;;10390435;28;20252;-46
2023/11/12 14:21:50;;;;;;;12.75;3.80;;;23.40;58.80;;;;;;10396806;28;20293;-44
2023/11/12 14:26:57;;;;;;;10.15;3.33;;;23.50;58.90;;;;;;10396204;28;20239;-46
2023/11/12 14:32:00;;;;;;;7.93;3.60;;;23.50;58.90;;;;;;10402809;28;20250;-44
2023/11/12 14:37:04;;;;;;;7.57;3.70;;;23.50;58.90;;;;;;10397369;28;20353;-46
2023/11/12 14:42:09;;;;;;;8.38;3.30;;;23.50;58.90;;;;;;10383609;28;20270;-47
2023/11/12 14:47:13;;;;;;;5.93;3.38;;;23.50;59.00;;;;;;10394250;28;20259;-45
2023/11/12 14:52:16;;;;;;;6.68;3.28;;;23.50;59.00;;;;;;10387464;28;20205;-47
2023/11/12 14:57:21;;;;;;;7.60;3.10;;;23.50;58.80;;;;;;10384144;28;20228;-51
2023/11/12 15:02:25;;;;;;;7.65;2.70;;;23.50;58.60;;;;;;10396811;28;20249;-46
2023/11/12 15:07:28;;;;;;;8.30;3.03;;;23.50;58.10;;;;;;10398673;28;20621;-45
2023/11/12 15:12:33;;;;;;;4.00;2.38;;;23.50;58.10;;;;;;10404814;28;20200;-45
2023/11/12 15:17:39;;;;;;;4.88;2.92;;;23.40;58.20;;;;;;10403639;28;20244;-46
2023/11/12 15:22:44;;;;;;;4.78;2.13;;;23.40;58.20;;;;;;10392556;28;20283;-43
2023/11/12 15:27:49;;;;;;;5.35;2.30;;;23.30;58.80;;;;;;10398000;28;21069;-46
2023/11/12 15:32:53;;;;;;;5.13;2.40;;;23.30;58.30;;;;;;10395621;28;20208;-47
2023/11/12 15:37:57;;;;;;;7.47;2.40;;;23.40;58.40;;;;;;10400460;28;20221;-48
2023/11/12 15:43:02;;;;;;;5.93;2.72;;;23.40;58.40;;;;;;10387693;28;20248;-54
2023/11/12 15:48:06;;;;;;;4.85;2.40;;;23.40;58.40;;;;;;10406119;28;20236;-45
2023/11/12 15:53:11;;;;;;;3.55;2.45;;;23.40;58.30;;;;;;10404325;28;20234;-45
2023/11/12 15:58:16;;;;;;;4.07;2.33;;;23.30;58.20;;;;;;10406805;28;20282;-45
2023/11/12 16:03:19;;;;;;;5.93;2.38;;;23.30;58.20;;;;;;10392317;28;20662;-46
2023/11/12 16:08:23;;;;;;;7.00;2.70;;;23.40;58.30;;;;;;10371861;28;80700;-42
2023/11/12 16:13:28;;;;;;;4.68;2.28;;;23.40;58.20;;;;;;10417183;28;20246;-43
2023/11/12 16:18:32;;;;;;;5.50;2.40;;;23.40;58.20;;;;;;10396373;28;20641;-45
2023/11/12 16:23:36;;;;;;;6.15;2.55;;;23.40;58.20;;;;;;10409375;28;20294;-42
2023/11/12 16:28:41;;;;;;;7.55;2.60;;;23.40;58.20;;;;;;10395964;28;20750;-46
2023/11/12 16:33:45;;;;;;;3.25;2.42;;;23.40;58.10;;;;;;10406407;28;20228;-46
2023/11/12 16:38:48;;;;;;;4.35;2.20;;;23.40;58.10;;;;;;10397946;28;20217;-47
2023/11/12 16:43:53;;;;;;;5.05;2.45;;;23.40;58.10;;;;;;10409620;28;20806;-46
2023/11/12 16:48:57;;;;;;;4.30;2.25;;;23.40;58.20;;;;;;10405813;28;20230;-44
2023/11/12 16:54:00;;;;;;;4.47;2.53;;;23.40;58.20;;;;;;10406933;28;20254;-47
2023/11/12 16:59:05;;;;;;;4.65;2.47;;;23.40;58.10;;;;;;10407879;28;20220;-43
2023/11/12 17:04:09;;;;;;;4.13;2.20;;;23.40;58.20;;;;;;10402993;28;20644;-49
2023/11/12 17:09:13;;;;;;;6.43;2.42;;;23.50;58.90;;;;;;10396373;28;20267;-50
2023/11/12 17:14:18;;;;;;;3.63;2.20;;;23.50;58.20;;;;;;10398628;28;20228;-47
2023/11/12 17:19:21;;;;;;;4.57;2.15;;;23.40;58.10;;;;;;10401100;28;20232;-49
2023/11/12 17:24:25;;;;;;;6.05;2.78;;;23.50;58.10;;;;;;10398305;28;20262;-46
2023/11/12 17:29:30;;;;;;;4.32;2.42;;;23.40;58.00;;;;;;10401956;28;20224;-45
2023/11/12 17:34:33;;;;;;;7.90;3.30;;;23.40;57.90;;;;;;10396334;28;20200;-47
2023/11/12 17:39:37;;;;;;;5.38;3.30;;;23.40;57.90;;;;;;10403908;28;20640;-46
2023/11/12 17:44:45;;;;;;;5.82;3.25;;;23.40;57.90;;;;;;10397262;28;20248;-44
2023/11/12 17:49:55;;;;;;;7.30;2.80;;;23.40;57.90;;;;;;10396800;28;20259;-45
2023/11/12 17:54:59;;;;;;;4.35;2.78;;;23.30;57.80;;;;;;10406194;28;20244;-48
2023/11/12 18:00:08;;;;;;;5.28;3.13;;;23.30;57.80;;;;;;10393641;28;20743;-45
2023/11/12 18:05:12;;;;;;;5.10;3.08;;;23.20;57.60;;;;;;10400044;28;20228;-47
2023/11/12 18:10:16;;;;;;;6.70;3.10;;;23.20;57.60;;;;;;10393995;28;20223;-44
2023/11/12 18:15:21;;;;;;;7.05;3.45;;;23.20;57.70;;;;;;10401941;28;20757;-46
2023/11/12 18:20:24;;;;;;;5.88;3.42;;;23.10;57.50;;;;;;10406786;28;20207;-49
2023/11/12 18:25:28;;;;;;;5.55;3.38;;;23.10;57.60;;;;;;10395353;28;20232;-45
2023/11/12 18:30:33;;;;;;;4.60;3.75;;;23.00;57.50;;;;;;10406990;28;20246;-48
2023/11/12 18:35:37;;;;;;;7.18;3.72;;;23.00;57.40;;;;;;10404452;28;20593;-44
2023/11/12 18:40:41;;;;;;;6.68;3.47;;;23.00;57.40;;;;;;10403062;28;20246;-45
2023/11/12 18:45:46;;;;;;;5.30;3.38;;;23.00;57.40;;;;;;10405542;28;20317;-46
2023/11/12 18:50:49;;;;;;;6.82;3.22;;;23.00;57.40;;;;;;10404156;28;20230;-45
2023/11/12 18:55:54;;;;;;;5.07;3.20;;;23.00;57.40;;;;;;10405210;28;20280;-47
2023/11/12 19:00:59;;;;;;;3.60;2.92;;;22.90;57.30;;;;;;10409008;28;20208;-52
2023/11/12 19:06:03;;;;;;;5.68;3.28;;;22.90;57.30;;;;;;10404737;28;20251;-46
2023/11/12 19:11:07;;;;;;;5.22;3.17;;;22.90;57.30;;;;;;10406948;28;20224;-48
2023/11/12 19:16:12;;;;;;;4.80;3.20;;;22.90;57.30;;;;;;10405163;28;20245;-46
2023/11/12 19:21:16;;;;;;;4.55;3.25;;;22.90;57.20;;;;;;10410376;28;20196;-44
2023/11/12 19:26:21;;;;;;;4.45;3.20;;;22.90;57.30;;;;;;10407445;28;20251;-47
2023/11/12 19:31:26;;;;;;;5.55;3.22;;;22.90;57.30;;;;;;10403182;28;20630;-48
2023/11/12 19:36:39;;;;;;;3.72;2.78;;;22.90;57.20;;;;;;10408466;28;20278;-45
2023/11/12 19:41:43;;;;;;;5.88;3.00;;;22.90;57.30;;;;;;10410886;28;20565;-46
2023/11/12 19:46:48;;;;;;;5.25;3.22;;;22.90;57.30;;;;;;10407745;28;20251;-45
2023/11/12 19:51:52;;;;;;;3.33;2.97;;;22.90;57.20;;;;;;10375267;28;20571;-44
2023/11/12 19:56:55;;;;;;;3.80;2.65;;;22.90;57.30;;;;;;10403090;28;20352;-47
2023/11/12 20:02:00;;;;;;;5.25;2.90;;;22.90;57.20;;;;;;10402799;28;20669;-45
2023/11/12 20:07:05;;;;;;;5.25;2.97;;;22.90;57.20;;;;;;10402737;28;20251;-45
2023/11/12 20:12:12;;;;;;;4.18;2.58;;;22.90;57.20;;;;;;10398857;28;20255;-43
2023/11/12 20:17:17;;;;;;;5.20;3.00;;;22.90;57.30;;;;;;10399052;28;20281;-44
2023/11/12 20:22:20;;;;;;;4.82;2.92;;;22.90;57.20;;;;;;10399285;28;20254;-45
2023/11/12 20:27:24;;;;;;;3.72;2.33;;;22.90;57.20;;;;;;10405505;28;20246;-43
2023/11/12 20:32:29;;;;;;;3.58;2.72;;;22.80;57.10;;;;;;10406912;28;20719;-44
2023/11/12 20:37:34;;;;;;;3.22;2.58;;;22.90;57.20;;;;;;10408530;28;20216;-43
2023/11/12 20:42:41;;;;;;;3.80;2.67;;;22.80;57.20;;;;;;10400171;28;20725;-47
2023/11/12 20:47:50;;;;;;;4.80;3.08;;;22.80;57.10;;;;;;10403357;28;20317;-43
2023/11/12 20:52:54;;;;;;;4.72;2.97;;;22.90;57.80;;;;;;10400681;28;20196;-45
2023/11/12 20:57:58;;;;;;;4.47;2.85;;;22.80;57.10;;;;;;10407108;28;20647;-49
2023/11/12 21:03:04;;;;;;;5.28;3.20;;;22.80;57.10;;;;;;10394217;28;20197;-54
2023/11/12 21:08:09;;;;;;;4.05;2.85;;;22.80;57.00;;;;;;10394775;28;20263;-45
2023/11/12 21:13:13;;;;;;;9.43;3.28;;;22.80;57.10;;;;;;10402227;28;20208;-51
2023/11/12 21:18:18;;;;;;;9.93;3.00;;;22.80;57.10;;;;;;10390905;28;20263;-46
2023/11/12 21:23:21;;;;;;;9.05;3.95;;;22.80;57.10;;;;;;10392136;28;20204;-53
2023/11/12 21:28:25;;;;;;;5.65;2.88;;;22.80;57.10;;;;;;10393993;28;20897;-48
2023/11/12 21:33:31;;;;;;;6.80;3.22;;;22.80;57.70;;;;;;10397958;28;20231;-44
2023/11/12 21:38:35;;;;;;;6.20;2.72;;;22.80;57.10;;;;;;10392252;28;20262;-45
2023/11/12 21:43:39;;;;;;;6.45;3.42;;;22.80;57.00;;;;;;10395604;28;20254;-45
2023/11/12 21:48:45;;;;;;;6.32;3.20;;;22.80;57.00;;;;;;10395615;28;20228;-46
2023/11/12 21:53:49;;;;;;;6.88;3.55;;;22.80;57.00;;;;;;10399787;28;20220;-46
2023/11/12 21:58:52;;;;;;;4.95;2.88;;;22.80;57.00;;;;;;10395381;28;20224;-44
2023/11/12 22:03:57;;;;;;;6.32;2.75;;;22.80;57.00;;;;;;10402601;28;20282;-44
2023/11/12 22:09:02;;;;;;;5.68;2.78;;;22.70;56.90;;;;;;10395788;28;20692;-47
2023/11/12 22:14:06;;;;;;;5.80;2.97;;;22.80;57.00;;;;;;10389838;28;20201;-44
2023/11/12 22:19:12;;;;;;;5.95;3.33;;;22.70;56.90;;;;;;10402147;28;20216;-45
2023/11/12 22:24:16;;;;;;;4.28;2.80;;;22.80;57.00;;;;;;10397788;28;20707;-49
2023/11/12 22:29:20;;;;;;;4.78;2.95;;;22.70;56.90;;;;;;10399116;28;20266;-46
2023/11/12 22:34:25;;;;;;;3.40;2.67;;;22.80;57.60;;;;;;10406223;28;20196;-50
2023/11/12 22:39:32;;;;;;;4.43;2.60;;;22.70;56.90;;;;;;10396322;28;20246;-53
2023/11/12 22:44:36;;;;;;;4.28;2.72;;;22.80;57.60;;;;;;10371954;28;20252;-47
2023/11/12 22:49:41;;;;;;;5.00;2.50;;;22.70;56.80;;;;;;10371742;28;20227;-50
2023/11/12 22:54:45;;;;;;;4.93;2.95;;;22.70;56.80;;;;;;10362566;28;20228;-45
2023/11/12 22:59:48;;;;;;;3.13;2.60;;;22.70;56.80;;;;;;10397717;28;20225;-45
2023/11/12 23:04:56;;;;;;;3.40;2.50;;;22.70;56.80;;;;;;10396621;28;20244;-48
2023/11/12 23:10:06;;;;;;;3.72;2.65;;;22.70;56.80;;;;;;10408328;28;20254;-48
2023/11/12 23:15:11;;;;;;;3.38;2.70;;;22.70;56.70;;;;;;10384243;28;20239;-47
2023/11/12 23:20:16;;;;;;;4.10;2.42;;;22.70;56.70;;;;;;10392562;28;20266;-47
2023/11/12 23:25:20;;;;;;;3.53;2.70;;;22.70;56.70;;;;;;10391251;28;20309;-50
2023/11/12 23:30:23;;;;;;;3.80;2.70;;;22.70;56.70;;;;;;10399524;28;20262;-49
2023/11/12 23:35:31;;;;;;;3.40;2.65;;;22.70;56.70;;;;;;10403278;28;20213;-46
2023/11/12 23:40:35;;;;;;;3.38;2.60;;;22.70;56.70;;;;;;10398711;28;20216;-45
2023/11/12 23:45:39;;;;;;;2.70;2.30;;;22.70;56.70;;;;;;10399202;28;20241;-45
2023/11/12 23:50:45;;;;;;;3.42;2.60;;;22.70;56.60;;;;;;10397058;28;20251;-46
2023/11/12 23:55:49;;;;;;;3.95;2.50;;;22.70;56.60;;;;;;10399195;28;20267;-45
